createdAt,value
2022-08-28T00:02:24.424Z,2.03
2022-08-28T00:07:25.922Z,2.95
2022-08-28T00:12:27.529Z,1.85
2022-08-28T00:17:28.967Z,1.75
2022-08-28T00:22:30.549Z,2.63
2022-08-28T00:27:32.010Z,2.20
2022-08-28T00:32:33.467Z,2.00
2022-08-28T00:37:35.836Z,1.85
2022-08-28T00:42:37.304Z,1.67
2022-08-28T00:47:38.791Z,1.65
2022-08-28T00:52:40.589Z,2.38
2022-08-28T00:57:54.833Z,2.28
2022-08-28T01:02:57.266Z,1.52
2022-08-28T01:07:59.413Z,2.83
2022-08-28T01:13:02.047Z,1.77
2022-08-28T01:18:08.428Z,1.90
2022-08-28T01:23:22.337Z,1.27
2022-08-28T01:28:23.811Z,2.03
2022-08-28T01:33:27.946Z,2.00
2022-08-28T01:38:29.930Z,2.20
2022-08-28T01:43:31.386Z,1.80
2022-08-28T01:48:35.546Z,1.70
2022-08-28T01:53:37.623Z,1.80
2022-08-28T01:58:39.567Z,2.20
2022-08-28T02:03:41.530Z,1.45
2022-08-28T02:08:43.427Z,1.45
2022-08-28T02:13:44.895Z,1.73
2022-08-28T02:18:47.025Z,1.27
2022-08-28T02:23:48.574Z,2.00
2022-08-28T02:28:50.084Z,1.73
2022-08-28T02:33:51.566Z,1.65
2022-08-28T02:38:57.563Z,2.03
2022-08-28T02:43:59.425Z,1.70
2022-08-28T02:49:00.877Z,2.03
2022-08-28T02:54:02.521Z,2.03
2022-08-28T02:59:04.058Z,1.55
2022-08-28T03:04:05.738Z,1.63
2022-08-28T03:09:07.199Z,1.85
2022-08-28T03:14:08.695Z,1.95
2022-08-28T03:19:10.175Z,1.85
2022-08-28T03:24:11.654Z,1.75
2022-08-28T03:29:17.232Z,2.22
2022-08-28T03:34:18.851Z,2.10
2022-08-28T03:39:20.331Z,1.30
2022-08-28T03:44:21.861Z,1.95
2022-08-28T03:49:23.368Z,1.48
2022-08-28T03:54:24.879Z,1.77
2022-08-28T03:59:31.695Z,1.80
2022-08-28T04:04:35.135Z,1.80
2022-08-28T04:09:36.605Z,2.33
2022-08-28T04:14:38.348Z,1.25
2022-08-28T04:19:39.805Z,1.75
2022-08-28T04:24:41.233Z,1.80
2022-08-28T04:29:42.701Z,1.45
2022-08-28T04:34:44.208Z,1.75
2022-08-28T04:39:45.685Z,1.90
2022-08-28T04:44:48.656Z,1.48
2022-08-28T04:49:50.124Z,1.65
2022-08-28T04:54:51.667Z,2.00
2022-08-28T04:59:53.183Z,1.52
2022-08-28T05:04:54.775Z,1.73
2022-08-28T05:09:56.371Z,1.40
2022-08-28T05:14:57.811Z,1.13
2022-08-28T05:19:59.255Z,1.80
2022-08-28T05:25:00.789Z,1.38
2022-08-28T05:30:02.451Z,1.45
2022-08-28T05:35:04.250Z,1.83
2022-08-28T05:40:06.392Z,1.25
2022-08-28T05:45:08.607Z,1.65
2022-08-28T05:50:11.404Z,1.67
2022-08-28T05:55:13.188Z,1.83
2022-08-28T06:00:15.049Z,1.45
2022-08-28T06:05:16.516Z,1.98
2022-08-28T06:10:17.981Z,1.98
2022-08-28T06:15:20.669Z,1.08
2022-08-28T06:20:22.110Z,2.15
2022-08-28T06:25:23.606Z,0.80
2022-08-28T06:30:25.062Z,0.88
2022-08-28T06:35:26.541Z,1.10
2022-08-28T06:40:28.063Z,1.02
2022-08-28T06:45:29.571Z,1.05
2022-08-28T06:50:31.000Z,0.70
2022-08-28T06:55:32.484Z,0.60
2022-08-28T07:00:35.925Z,0.40
2022-08-28T07:05:37.491Z,0.73
2022-08-28T07:10:38.993Z,0.32
2022-08-28T07:15:41.935Z,0.47
2022-08-28T07:20:44.349Z,1.85
2022-08-28T07:25:45.833Z,0.20
2022-08-28T07:30:57.235Z,0.57
2022-08-28T07:36:00.489Z,0.30
2022-08-28T07:41:01.955Z,0.20
2022-08-28T07:46:06.942Z,0.43
2022-08-28T07:51:09.214Z,0.63
2022-08-28T07:56:11.213Z,0.40
2022-08-28T08:01:12.779Z,0.10
2022-08-28T08:06:14.289Z,0.20
2022-08-28T08:11:16.977Z,0.22
2022-08-28T08:21:22.217Z,0.17
2022-08-28T08:26:25.925Z,0.57
2022-08-28T08:31:30.585Z,0.60
2022-08-28T08:36:34.637Z,0.60
2022-08-28T08:41:44.129Z,0.32
2022-08-28T08:47:11.781Z,0.22
2022-08-28T08:52:31.120Z,1.25
2022-08-28T08:57:36.604Z,1.00
2022-08-28T09:02:44.991Z,0.40
2022-08-28T09:07:55.751Z,0.68
2022-08-28T09:13:12.944Z,0.43
2022-08-28T09:18:24.623Z,0.40
2022-08-28T09:23:29.922Z,0.30
2022-08-28T09:28:41.882Z,0.85
2022-08-28T09:33:46.571Z,0.80
2022-08-28T09:39:03.369Z,0.40
2022-08-28T09:44:04.851Z,0.60
2022-08-28T09:49:13.452Z,0.30
2022-08-28T09:54:22.407Z,0.40
2022-08-28T09:59:26.135Z,0.20
2022-08-28T10:04:45.955Z,0.83
2022-08-28T10:10:06.540Z,0.95
2022-08-28T10:15:14.931Z,0.30
2022-08-28T10:20:31.583Z,0.30
2022-08-28T10:25:51.541Z,0.70
2022-08-28T10:31:22.558Z,0.30
2022-08-28T10:36:33.925Z,0.17
2022-08-28T10:41:59.449Z,0.38
2022-08-28T10:47:03.405Z,0.13
2022-08-28T10:52:12.274Z,0.20
2022-08-28T10:57:36.070Z,0.90
2022-08-28T11:02:42.052Z,0.35
2022-08-28T11:12:52.050Z,1.02
2022-08-28T11:18:18.910Z,0.40
2022-08-28T11:23:52.419Z,0.30
2022-08-28T11:28:53.898Z,0.57
2022-08-28T11:33:55.404Z,0.20
2022-08-28T11:38:57.443Z,0.50
2022-08-28T11:44:09.077Z,0.30
2022-08-28T11:49:32.092Z,0.30
2022-08-28T11:54:55.299Z,0.85
2022-08-28T12:00:08.340Z,0.40
2022-08-28T12:05:15.890Z,0.25
2022-08-28T12:10:20.114Z,0.65
2022-08-28T12:15:27.457Z,0.30
2022-08-28T12:20:34.614Z,0.47
2022-08-28T12:25:39.310Z,0.68
2022-08-28T12:31:01.487Z,0.60
2022-08-28T12:36:04.698Z,0.63
2022-08-28T12:41:14.634Z,0.68
2022-08-28T12:46:22.198Z,0.32
2022-08-28T12:51:35.370Z,0.30
2022-08-28T12:56:38.825Z,0.38
2022-08-28T13:01:40.435Z,0.60
2022-08-28T13:06:42.015Z,0.68
2022-08-28T13:11:50.902Z,0.82
2022-08-28T13:16:52.449Z,0.52
2022-08-28T13:22:06.956Z,0.30
2022-08-28T13:27:14.102Z,0.95
2022-08-28T13:32:17.463Z,0.45
2022-08-28T13:37:56.743Z,0.60
2022-08-28T13:43:05.248Z,0.98
2022-08-28T13:48:06.708Z,0.80
2022-08-28T13:53:08.472Z,0.40
2022-08-28T13:58:10.239Z,1.63
2022-08-28T14:03:12.241Z,0.47
2022-08-28T14:08:13.801Z,0.60
2022-08-28T14:13:15.496Z,0.93
2022-08-28T14:18:16.949Z,0.77
2022-08-28T14:23:18.562Z,1.02
2022-08-28T14:28:20.057Z,1.25
2022-08-28T14:33:21.587Z,1.10
2022-08-28T14:38:24.507Z,0.90
2022-08-28T14:43:26.700Z,0.75
2022-08-28T14:48:28.130Z,1.40
2022-08-28T14:53:29.570Z,0.80
2022-08-28T14:58:31.015Z,0.88
2022-08-28T15:03:33.656Z,1.02
2022-08-28T15:08:36.588Z,0.38
2022-08-28T15:13:38.097Z,0.95
2022-08-28T15:18:41.160Z,0.63
2022-08-28T15:23:43.049Z,0.63
2022-08-28T15:28:44.989Z,0.63
2022-08-28T15:33:46.436Z,0.47
2022-08-28T15:38:47.987Z,0.77
2022-08-28T15:43:50.228Z,0.75
2022-08-28T15:48:54.390Z,0.30
2022-08-28T15:53:56.073Z,0.82
2022-08-28T15:58:57.543Z,0.68
2022-08-28T16:03:59.065Z,0.50
2022-08-28T16:09:00.567Z,0.30
2022-08-28T16:14:02.252Z,0.20
2022-08-28T16:19:03.833Z,0.40
2022-08-28T16:24:05.371Z,0.68
2022-08-28T16:29:07.304Z,0.32
2022-08-28T16:34:08.884Z,0.38
2022-08-28T16:39:11.966Z,0.20
2022-08-28T16:44:13.418Z,0.40
2022-08-28T16:49:14.991Z,0.10
2022-08-28T16:54:16.799Z,0.50
2022-08-28T16:59:18.266Z,0.60
2022-08-28T17:04:19.827Z,0.35
2022-08-28T17:09:21.347Z,0.82
2022-08-28T17:14:23.493Z,0.65
2022-08-28T17:19:25.039Z,0.17
2022-08-28T17:24:27.023Z,0.35
2022-08-28T17:29:28.599Z,0.10
2022-08-28T17:34:30.519Z,0.20
2022-08-28T17:39:32.526Z,0.20
2022-08-28T17:44:34.092Z,0.40
2022-08-28T17:49:35.570Z,0.10
2022-08-28T17:54:37.127Z,0.20
2022-08-28T17:59:38.603Z,0.30
2022-08-28T18:04:40.087Z,0.30
2022-08-28T18:09:41.737Z,1.30
2022-08-28T18:14:43.246Z,0.47
2022-08-28T18:19:44.862Z,0.17
2022-08-28T18:24:51.031Z,0.20
2022-08-28T18:29:53.047Z,0.30
2022-08-28T18:34:54.523Z,0.10
2022-08-28T18:39:56.041Z,0.20
2022-08-28T18:44:57.791Z,0.17
2022-08-28T18:49:59.331Z,0.85
2022-08-28T18:55:01.085Z,0.22
2022-08-28T19:00:07.505Z,0.20
2022-08-28T19:05:10.390Z,0.10
2022-08-28T19:10:28.356Z,0.10
2022-08-28T19:15:34.982Z,0.38
2022-08-28T19:20:36.521Z,0.88
2022-08-28T19:25:37.970Z,0.20
2022-08-28T19:30:39.607Z,0.35
2022-08-28T19:35:41.066Z,0.32
2022-08-28T19:40:42.613Z,0.20
2022-08-28T19:45:45.141Z,0.10
2022-08-28T19:50:46.582Z,0.20
2022-08-28T19:55:48.051Z,0.10
2022-08-28T20:00:49.516Z,0.30
2022-08-28T20:05:50.978Z,0.20
2022-08-28T20:10:52.445Z,0.20
2022-08-28T20:15:53.918Z,0.10
2022-08-28T20:20:55.474Z,0.68
2022-08-28T20:25:57.054Z,0.25
2022-08-28T20:30:58.765Z,0.30
2022-08-28T20:36:01.898Z,0.22
2022-08-28T20:41:15.923Z,0.28
2022-08-28T20:46:18.424Z,0.20
2022-08-28T20:51:19.963Z,0.30
2022-08-28T20:56:21.411Z,0.20
2022-08-28T21:01:22.881Z,0.17
2022-08-28T21:06:24.367Z,0.85
2022-08-28T21:11:27.279Z,0.73
2022-08-28T21:16:28.807Z,0.63
2022-08-28T21:21:30.434Z,0.30
2022-08-28T21:26:32.299Z,0.60
2022-08-28T21:31:34.398Z,0.10
2022-08-28T21:36:37.491Z,0.20
2022-08-28T21:41:40.076Z,0.20
2022-08-28T21:46:41.642Z,0.20
2022-08-28T21:51:43.259Z,0.28
2022-08-28T21:56:44.802Z,0.70
2022-08-28T22:01:46.280Z,0.20
2022-08-28T22:06:47.926Z,0.20
2022-08-28T22:11:49.425Z,0.10
2022-08-28T22:16:51.040Z,0.40
2022-08-28T22:21:52.673Z,0.45
2022-08-28T22:26:57.413Z,0.55
2022-08-28T22:31:59.398Z,0.47
2022-08-28T22:37:00.982Z,0.25
2022-08-28T22:42:02.453Z,0.70
2022-08-28T22:47:04.217Z,0.60
2022-08-28T22:52:06.095Z,0.40
2022-08-28T22:57:07.711Z,0.00
2022-08-28T23:02:10.456Z,0.13
2022-08-28T23:07:12.035Z,0.40
2022-08-28T23:12:15.051Z,0.40
2022-08-28T23:17:17.864Z,0.20
2022-08-28T23:22:20.355Z,0.30
2022-08-28T23:27:37.175Z,0.15
2022-08-28T23:32:38.918Z,0.25
2022-08-28T23:37:43.672Z,1.08
2022-08-28T23:42:50.187Z,0.57
2022-08-28T23:47:51.707Z,0.40
2022-08-28T23:52:53.513Z,0.43
2022-08-28T23:57:55.062Z,0.28
